createdAt,value
2024-01-20T00:01:16.295Z,0.80
2024-01-20T00:03:44.389Z,0.90
2024-01-20T00:06:12.814Z,0.90
2024-01-20T00:08:42.452Z,0.90
2024-01-20T00:11:11.302Z,0.90
2024-01-20T00:13:39.713Z,0.90
2024-01-20T00:16:07.977Z,1.00
2024-01-20T00:18:36.101Z,1.00
2024-01-20T00:21:04.414Z,1.00
2024-01-20T00:23:32.677Z,0.90
2024-01-20T00:26:02.511Z,1.00
2024-01-20T00:28:30.682Z,1.00
2024-01-20T00:30:58.744Z,1.00
2024-01-20T00:33:27.744Z,1.00
2024-01-20T00:35:56.114Z,1.00
2024-01-20T00:38:25.604Z,1.00
2024-01-20T00:40:53.807Z,1.10
2024-01-20T00:43:23.203Z,1.10
2024-01-20T00:45:51.348Z,1.10
2024-01-20T00:48:19.513Z,1.10
2024-01-20T00:50:47.749Z,1.10
2024-01-20T00:53:15.867Z,1.10
2024-01-20T00:55:43.969Z,1.10
2024-01-20T00:58:12.419Z,1.10
2024-01-20T01:00:41.897Z,1.10
2024-01-20T01:03:10.391Z,1.10
2024-01-20T01:05:38.448Z,1.10
2024-01-20T01:08:06.869Z,1.10
2024-01-20T01:10:34.994Z,1.10
2024-01-20T01:13:03.088Z,1.10
2024-01-20T01:15:33.234Z,1.10
2024-01-20T01:18:02.719Z,1.10
2024-01-20T01:20:30.792Z,1.10
2024-01-20T01:22:58.846Z,1.10
2024-01-20T01:25:26.955Z,1.00
2024-01-20T01:27:55.013Z,1.00
2024-01-20T01:30:23.078Z,1.00
2024-01-20T01:32:51.161Z,1.10
2024-01-20T01:35:20.866Z,1.00
2024-01-20T01:37:49.662Z,1.00
2024-01-20T01:40:17.872Z,1.00
2024-01-20T01:42:45.948Z,1.00
2024-01-20T01:45:14.001Z,1.10
2024-01-20T01:47:42.156Z,1.10
2024-01-20T01:50:11.006Z,1.10
2024-01-20T01:52:40.464Z,1.10
2024-01-20T01:55:09.487Z,1.10
2024-01-20T01:57:37.548Z,1.10
2024-01-20T02:00:06.475Z,1.10
2024-01-20T02:02:34.542Z,1.10
2024-01-20T02:05:02.643Z,1.10
2024-01-20T02:07:30.759Z,1.10
2024-01-20T02:10:00.293Z,1.10
2024-01-20T02:12:28.507Z,1.10
2024-01-20T02:14:56.630Z,1.10
2024-01-20T02:17:24.694Z,1.10
2024-01-20T02:19:52.742Z,1.10
2024-01-20T02:22:22.149Z,1.10
2024-01-20T02:24:50.924Z,1.10
2024-01-20T02:27:19.277Z,1.10
2024-01-20T02:29:47.437Z,1.10
2024-01-20T02:32:15.772Z,1.10
2024-01-20T02:34:44.215Z,1.00
2024-01-20T02:37:12.342Z,1.10
2024-01-20T02:39:41.923Z,1.10
2024-01-20T02:42:10.914Z,1.00
2024-01-20T02:44:39.470Z,1.10
2024-01-20T02:47:07.630Z,1.10
2024-01-20T02:49:36.194Z,1.00
2024-01-20T02:52:04.871Z,1.10
2024-01-20T02:54:33.045Z,1.10
2024-01-20T02:57:02.581Z,1.00
2024-01-20T02:59:30.719Z,0.90
2024-01-20T03:01:59.532Z,0.90
2024-01-20T03:04:27.791Z,1.00
2024-01-20T03:06:55.970Z,0.90
2024-01-20T03:09:24.168Z,0.90
2024-01-20T03:11:52.519Z,0.90
2024-01-20T03:14:22.071Z,0.90
2024-01-20T03:16:50.176Z,1.00
2024-01-20T03:19:18.333Z,0.90
2024-01-20T03:21:46.424Z,1.00
2024-01-20T03:24:19.124Z,1.00
2024-01-20T03:26:47.961Z,1.00
2024-01-20T03:29:16.140Z,1.00
2024-01-20T03:31:45.720Z,0.90
2024-01-20T03:34:13.954Z,0.90
2024-01-20T03:36:42.193Z,0.90
2024-01-20T03:39:10.462Z,0.90
2024-01-20T03:41:38.680Z,1.00
2024-01-20T03:44:06.909Z,0.90
2024-01-20T03:46:35.026Z,0.90
2024-01-20T03:49:04.908Z,0.80
2024-01-20T03:51:33.410Z,0.70
2024-01-20T03:54:03.074Z,0.70
2024-01-20T03:56:31.232Z,0.70
2024-01-20T03:59:00.068Z,0.70
2024-01-20T04:01:28.169Z,0.70
2024-01-20T04:03:56.367Z,0.70
2024-01-20T04:06:26.022Z,0.80
2024-01-20T04:08:54.210Z,0.80
2024-01-20T04:11:22.319Z,0.90
2024-01-20T04:13:50.390Z,0.90
2024-01-20T04:16:18.510Z,0.90
2024-01-20T04:18:46.728Z,0.90
2024-01-20T04:21:14.963Z,1.00
2024-01-20T04:23:44.471Z,1.00
2024-01-20T04:26:12.590Z,1.00
2024-01-20T04:28:40.698Z,1.00
2024-01-20T04:31:08.775Z,1.10
2024-01-20T04:33:38.073Z,1.10
2024-01-20T04:36:07.086Z,1.10
2024-01-20T04:38:35.228Z,1.10
2024-01-20T04:41:04.795Z,1.20
2024-01-20T04:43:32.957Z,1.20
2024-01-20T04:46:01.057Z,1.30
2024-01-20T04:48:29.910Z,1.30
2024-01-20T04:50:58.082Z,1.30
2024-01-20T04:53:26.212Z,1.20
2024-01-20T04:55:54.315Z,1.30
2024-01-20T04:58:23.780Z,1.30
2024-01-20T05:00:51.980Z,1.30
2024-01-20T05:03:20.181Z,1.30
2024-01-20T05:05:48.352Z,1.30
2024-01-20T05:08:16.675Z,1.40
2024-01-20T05:10:44.790Z,1.40
2024-01-20T05:13:13.063Z,1.40
2024-01-20T05:15:42.567Z,1.40
2024-01-20T05:18:10.767Z,1.50
2024-01-20T05:20:39.055Z,1.50
2024-01-20T05:23:07.146Z,1.50
2024-01-20T05:25:35.249Z,1.50
2024-01-20T05:28:03.346Z,1.50
2024-01-20T05:30:31.535Z,1.40
2024-01-20T05:33:01.137Z,1.50
2024-01-20T05:35:29.371Z,1.50
2024-01-20T05:37:57.450Z,1.50
2024-01-20T05:40:26.238Z,1.50
2024-01-20T05:42:54.312Z,1.50
2024-01-20T05:45:22.535Z,1.50
2024-01-20T05:47:50.690Z,1.50
2024-01-20T05:50:20.175Z,1.50
2024-01-20T05:52:48.295Z,1.50
2024-01-20T05:55:16.402Z,1.50
2024-01-20T05:57:44.581Z,1.60
2024-01-20T06:00:13.983Z,1.60
2024-01-20T06:02:42.127Z,1.60
2024-01-20T06:05:10.738Z,1.60
2024-01-20T06:07:40.217Z,1.60
2024-01-20T06:10:09.091Z,1.60
2024-01-20T06:12:37.362Z,1.60
2024-01-20T06:15:06.326Z,1.60
2024-01-20T06:17:34.471Z,1.70
2024-01-20T06:20:02.570Z,1.60
2024-01-20T06:22:30.666Z,1.70
2024-01-20T06:25:00.124Z,1.70
2024-01-20T06:27:31.464Z,1.60
2024-01-20T06:29:59.595Z,1.70
2024-01-20T06:32:27.744Z,1.70
2024-01-20T06:34:55.870Z,1.70
2024-01-20T06:37:23.986Z,1.70
2024-01-20T06:39:52.095Z,1.70
2024-01-20T06:42:21.551Z,1.70
2024-01-20T06:44:49.770Z,1.80
2024-01-20T06:47:17.853Z,1.80
2024-01-20T06:49:50.598Z,1.80
2024-01-20T06:52:18.700Z,1.90
2024-01-20T06:54:46.845Z,1.80
2024-01-20T06:57:15.024Z,1.80
2024-01-20T06:59:44.480Z,1.80
2024-01-20T07:02:12.816Z,1.90
2024-01-20T07:04:40.940Z,1.90
2024-01-20T07:07:09.053Z,1.90
2024-01-20T07:09:40.564Z,1.90
2024-01-20T07:12:09.266Z,1.90
2024-01-20T07:14:37.779Z,1.90
2024-01-20T07:17:07.415Z,1.90
2024-01-20T07:19:35.537Z,1.90
2024-01-20T07:22:03.712Z,1.90
2024-01-20T07:24:31.794Z,1.90
2024-01-20T07:27:00.281Z,1.90
2024-01-20T07:29:28.416Z,1.90
2024-01-20T07:31:56.588Z,1.90
2024-01-20T07:34:26.473Z,2.00
2024-01-20T07:36:54.680Z,1.90
2024-01-20T07:39:22.844Z,1.90
2024-01-20T07:41:51.003Z,1.90
2024-01-20T07:44:19.093Z,1.90
2024-01-20T07:46:47.177Z,1.90
2024-01-20T07:49:15.400Z,1.90
2024-01-20T07:51:44.942Z,1.90
2024-01-20T07:54:13.700Z,1.90
2024-01-20T07:56:41.863Z,2.00
2024-01-20T07:59:09.967Z,2.00
2024-01-20T08:01:38.071Z,2.10
2024-01-20T08:04:06.326Z,2.10
2024-01-20T08:06:34.455Z,2.10
2024-01-20T08:09:04.777Z,2.10
2024-01-20T08:11:32.865Z,2.10
2024-01-20T08:14:01.015Z,2.10
2024-01-20T08:16:29.925Z,2.10
2024-01-20T08:18:58.407Z,2.10
2024-01-20T08:21:26.612Z,2.10
2024-01-20T08:23:55.949Z,2.20
2024-01-20T08:26:25.457Z,2.30
2024-01-20T08:28:52.598Z,2.30
2024-01-20T08:31:20.798Z,2.30
2024-01-20T08:33:49.082Z,2.30
2024-01-20T08:36:17.379Z,2.30
2024-01-20T08:38:45.469Z,2.20
2024-01-20T08:41:13.571Z,2.30
2024-01-20T08:43:45.543Z,2.20
2024-01-20T08:46:13.941Z,2.30
2024-01-20T08:48:42.201Z,2.20
2024-01-20T08:51:10.642Z,2.20
2024-01-20T08:53:39.160Z,2.20
2024-01-20T08:56:07.816Z,2.20
2024-01-20T08:58:35.896Z,2.20
2024-01-20T09:01:05.759Z,2.10
2024-01-20T09:03:34.049Z,2.20
2024-01-20T09:06:02.363Z,2.30
2024-01-20T09:08:30.509Z,2.30
2024-01-20T09:10:59.436Z,2.20
2024-01-20T09:13:27.579Z,2.30
2024-01-20T09:15:55.786Z,2.40
2024-01-20T09:18:25.566Z,2.40
2024-01-20T09:20:53.777Z,2.40
2024-01-20T09:23:21.889Z,2.50
2024-01-20T09:25:50.140Z,2.30
2024-01-20T09:28:18.253Z,2.40
2024-01-20T09:30:46.487Z,2.40
2024-01-20T09:33:15.440Z,2.30
2024-01-20T09:35:47.500Z,2.30
2024-01-20T09:38:15.611Z,2.30
2024-01-20T09:40:43.680Z,2.30
2024-01-20T09:43:11.782Z,2.40
2024-01-20T09:45:41.480Z,2.40
2024-01-20T09:48:10.062Z,2.60
2024-01-20T09:50:38.242Z,2.50
2024-01-20T09:53:14.825Z,2.60
2024-01-20T09:55:43.393Z,2.80
2024-01-20T09:58:12.540Z,2.80
2024-01-20T10:00:41.362Z,2.80
2024-01-20T10:03:10.827Z,2.90
2024-01-20T10:05:39.457Z,3.00
2024-01-20T10:08:09.207Z,3.30
2024-01-20T10:10:37.415Z,3.20
2024-01-20T10:13:05.697Z,3.20
2024-01-20T10:15:35.355Z,3.10
2024-01-20T10:18:09.559Z,3.30
2024-01-20T10:20:38.145Z,3.50
2024-01-20T10:23:08.245Z,3.50
2024-01-20T10:25:36.704Z,3.40
2024-01-20T10:28:05.262Z,3.50
2024-01-20T10:30:33.410Z,3.60
2024-01-20T10:35:32.535Z,3.30
2024-01-20T10:38:02.095Z,3.50
2024-01-20T10:40:31.553Z,3.40
2024-01-20T10:43:02.903Z,3.50
2024-01-20T10:45:31.800Z,3.40
2024-01-20T10:48:07.519Z,3.40
2024-01-20T10:50:37.814Z,3.20
2024-01-20T10:53:05.969Z,3.20
2024-01-20T10:55:35.399Z,3.20
2024-01-20T10:58:04.007Z,3.40
2024-01-20T11:00:32.283Z,3.40
2024-01-20T11:03:00.455Z,3.20
2024-01-20T11:05:28.712Z,3.40
2024-01-20T11:07:58.239Z,3.20
2024-01-20T11:10:26.432Z,3.10
2024-01-20T11:13:02.587Z,3.20
2024-01-20T11:15:31.421Z,3.10
2024-01-20T11:18:01.112Z,3.10
2024-01-20T11:20:31.213Z,3.20
2024-01-20T11:22:59.348Z,3.00
2024-01-20T11:25:33.755Z,2.90
2024-01-20T11:28:03.445Z,2.90
2024-01-20T11:30:32.348Z,3.00
2024-01-20T11:33:00.903Z,3.00
2024-01-20T11:35:29.376Z,2.90
2024-01-20T11:37:58.730Z,3.00
2024-01-20T11:40:27.094Z,3.00
2024-01-20T11:42:55.183Z,3.10
2024-01-20T11:45:24.705Z,3.20
2024-01-20T11:47:52.958Z,3.10
2024-01-20T11:50:21.144Z,3.00
2024-01-20T11:52:49.229Z,3.10
2024-01-20T11:55:17.484Z,3.10
2024-01-20T11:57:45.658Z,3.10
2024-01-20T12:00:16.153Z,3.00
2024-01-20T12:02:49.026Z,3.00
2024-01-20T12:05:19.144Z,3.00
2024-01-20T12:07:47.823Z,3.00
2024-01-20T12:10:16.993Z,3.20
2024-01-20T12:12:45.576Z,3.20
2024-01-20T12:15:16.479Z,3.40
2024-01-20T12:17:44.723Z,3.50
2024-01-20T12:20:15.150Z,3.60
2024-01-20T12:22:43.309Z,3.70
2024-01-20T12:25:12.597Z,3.40
2024-01-20T12:27:42.883Z,3.50
2024-01-20T12:30:11.837Z,3.80
2024-01-20T12:32:39.970Z,3.70
2024-01-20T12:35:08.981Z,3.60
2024-01-20T12:37:38.711Z,3.50
2024-01-20T12:40:07.866Z,3.50
2024-01-20T12:42:37.693Z,3.50
2024-01-20T12:45:08.344Z,3.40
2024-01-20T12:47:36.504Z,3.40
2024-01-20T12:50:05.550Z,3.50
2024-01-20T12:52:33.730Z,3.50
2024-01-20T12:55:03.198Z,3.40
2024-01-20T12:57:31.329Z,3.40
2024-01-20T12:59:59.597Z,3.30
2024-01-20T13:02:27.845Z,3.40
2024-01-20T13:04:55.971Z,3.40
2024-01-20T13:07:25.062Z,3.30
2024-01-20T13:09:53.244Z,3.20
2024-01-20T13:12:23.186Z,3.20
2024-01-20T13:14:51.297Z,3.20
2024-01-20T13:17:19.424Z,3.20
2024-01-20T13:19:47.522Z,3.20
2024-01-20T13:22:15.628Z,3.30
2024-01-20T13:24:43.821Z,3.30
2024-01-20T13:27:12.123Z,3.30
2024-01-20T13:29:41.780Z,3.40
2024-01-20T13:32:10.255Z,3.30
2024-01-20T13:34:38.387Z,3.40
2024-01-20T13:37:06.520Z,3.20
2024-01-20T13:39:34.755Z,3.20
2024-01-20T13:42:03.297Z,3.10
2024-01-20T13:44:31.429Z,3.10
2024-01-20T13:47:00.877Z,3.10
2024-01-20T13:49:29.042Z,3.20
2024-01-20T13:51:57.146Z,3.20
2024-01-20T13:54:25.494Z,3.30
2024-01-20T13:56:53.584Z,3.30
2024-01-20T13:59:21.871Z,3.40
2024-01-20T14:01:52.954Z,3.40
2024-01-20T14:04:22.636Z,3.40
2024-01-20T14:06:50.888Z,3.50
2024-01-20T14:09:19.188Z,3.40
2024-01-20T14:11:47.359Z,3.40
2024-01-20T14:14:16.062Z,3.40
2024-01-20T14:16:44.202Z,3.40
2024-01-20T14:19:12.801Z,3.40
2024-01-20T14:21:42.374Z,3.40
2024-01-20T14:24:10.541Z,3.20
2024-01-20T14:26:38.701Z,3.20
2024-01-20T14:29:09.469Z,3.30
2024-01-20T14:31:46.972Z,3.30
2024-01-20T14:34:15.298Z,3.30
2024-01-20T14:36:46.809Z,3.30
2024-01-20T14:39:15.356Z,3.20
2024-01-20T14:41:43.520Z,3.10
2024-01-20T14:44:12.213Z,3.00
2024-01-20T14:46:40.327Z,3.00
2024-01-20T14:49:08.931Z,3.00
2024-01-20T14:51:37.346Z,3.00
2024-01-20T14:54:06.989Z,2.90
2024-01-20T14:56:40.873Z,2.90
2024-01-20T14:59:09.047Z,2.80
2024-01-20T15:01:37.941Z,2.80
2024-01-20T15:04:06.787Z,2.80
2024-01-20T15:06:35.273Z,2.90
2024-01-20T15:09:03.625Z,2.80
2024-01-20T15:11:33.304Z,2.80
2024-01-20T15:14:01.753Z,2.80
2024-01-20T15:16:29.849Z,2.80
2024-01-20T15:18:58.054Z,2.80
2024-01-20T15:21:26.224Z,2.70
2024-01-20T15:23:54.374Z,2.80
2024-01-20T15:26:22.468Z,2.80
2024-01-20T15:28:52.265Z,2.70
2024-01-20T15:31:20.358Z,2.80
2024-01-20T15:33:48.836Z,2.60
2024-01-20T15:36:19.563Z,2.60
2024-01-20T15:38:47.831Z,2.50
2024-01-20T15:41:15.973Z,2.40
2024-01-20T15:43:44.214Z,2.50
2024-01-20T15:46:13.686Z,2.50
2024-01-20T15:48:41.843Z,2.50
2024-01-20T15:51:10.062Z,2.40
2024-01-20T15:53:38.167Z,2.50
2024-01-20T15:56:07.015Z,2.40
2024-01-20T15:58:35.115Z,2.40
2024-01-20T16:01:03.336Z,2.30
2024-01-20T16:03:33.093Z,2.30
2024-01-20T16:06:01.687Z,2.20
2024-01-20T16:08:29.866Z,2.20
2024-01-20T16:10:57.976Z,2.30
2024-01-20T16:13:26.103Z,2.30
2024-01-20T16:15:54.255Z,2.20
2024-01-20T16:18:22.475Z,2.30
2024-01-20T16:20:51.995Z,2.20
2024-01-20T16:23:21.242Z,2.00
2024-01-20T16:25:49.384Z,2.10
2024-01-20T16:28:17.498Z,2.10
2024-01-20T16:30:45.810Z,2.00
2024-01-20T16:33:14.316Z,2.10
2024-01-20T16:35:42.524Z,2.10
2024-01-20T16:38:12.019Z,2.10
2024-01-20T16:40:40.343Z,2.20
2024-01-20T16:43:08.463Z,2.20
2024-01-20T16:45:36.606Z,2.20
2024-01-20T16:48:05.432Z,2.20
2024-01-20T16:50:33.577Z,2.20
2024-01-20T16:53:03.793Z,2.30
2024-01-20T16:55:33.351Z,2.20
2024-01-20T16:58:01.473Z,2.20
2024-01-20T17:00:29.630Z,2.20
2024-01-20T17:02:57.949Z,2.20
2024-01-20T17:05:26.652Z,2.30
2024-01-20T17:07:54.735Z,2.20
2024-01-20T17:10:22.852Z,2.30
2024-01-20T17:12:52.282Z,2.20
2024-01-20T17:15:20.610Z,2.20
2024-01-20T17:17:49.601Z,2.20
2024-01-20T17:20:17.876Z,2.20
2024-01-20T17:22:46.067Z,2.20
2024-01-20T17:25:14.328Z,2.20
2024-01-20T17:27:42.577Z,2.20
2024-01-20T17:30:12.795Z,2.20
2024-01-20T17:32:41.045Z,2.20
2024-01-20T17:35:09.976Z,2.10
2024-01-20T17:37:38.168Z,2.00
2024-01-20T17:40:07.344Z,2.00
2024-01-20T17:42:35.489Z,2.00
2024-01-20T17:45:04.464Z,2.00
2024-01-20T17:47:35.048Z,2.00
2024-01-20T17:50:03.244Z,2.00
2024-01-20T17:52:31.714Z,2.00
2024-01-20T17:54:59.905Z,1.90
2024-01-20T17:57:28.546Z,1.90
2024-01-20T17:59:56.831Z,1.80
2024-01-20T18:02:24.948Z,1.80
2024-01-20T18:04:54.510Z,1.80
2024-01-20T18:07:22.747Z,1.70
2024-01-20T18:09:50.844Z,1.70
2024-01-20T18:12:18.996Z,1.70
2024-01-20T18:14:47.101Z,1.70
2024-01-20T18:17:15.489Z,1.70
2024-01-20T18:19:43.651Z,1.60
2024-01-20T18:22:13.164Z,1.70
2024-01-20T18:24:41.491Z,1.70
2024-01-20T18:27:09.788Z,1.70
2024-01-20T18:29:39.085Z,1.70
2024-01-20T18:32:07.246Z,1.70
2024-01-20T18:34:36.073Z,1.70
2024-01-20T18:37:04.299Z,1.70
2024-01-20T18:39:34.772Z,1.70
2024-01-20T18:42:02.929Z,1.60
2024-01-20T18:44:31.066Z,1.60
2024-01-20T18:46:59.165Z,1.60
2024-01-20T18:49:27.334Z,1.60
2024-01-20T18:52:00.719Z,1.50
2024-01-20T18:54:28.888Z,1.50
2024-01-20T18:56:58.342Z,1.60
2024-01-20T18:59:26.666Z,1.50
2024-01-20T19:01:54.750Z,1.40
2024-01-20T19:04:23.074Z,1.40
2024-01-20T19:06:51.221Z,1.40
2024-01-20T19:09:19.338Z,1.40
2024-01-20T19:11:47.468Z,1.40
2024-01-20T19:14:17.018Z,1.40
2024-01-20T19:16:45.159Z,1.40
2024-01-20T19:19:13.853Z,1.30
2024-01-20T19:21:43.040Z,1.30
2024-01-20T19:24:11.730Z,1.10
2024-01-20T19:26:39.853Z,1.20
2024-01-20T19:29:07.999Z,1.10
2024-01-20T19:31:37.461Z,1.00
2024-01-20T19:34:07.139Z,1.10
2024-01-20T19:36:35.400Z,1.10
2024-01-20T19:39:05.817Z,1.00
2024-01-20T19:41:34.175Z,1.00
2024-01-20T19:44:02.263Z,1.00
2024-01-20T19:46:30.380Z,0.90
2024-01-20T19:48:59.973Z,0.90
2024-01-20T19:51:28.168Z,0.90
2024-01-20T19:53:56.309Z,0.90
2024-01-20T19:56:24.396Z,0.70
2024-01-20T19:58:52.968Z,0.80
2024-01-20T20:01:21.263Z,0.80
2024-01-20T20:03:49.466Z,0.80
2024-01-20T20:06:19.005Z,0.70
2024-01-20T20:08:47.138Z,0.70
2024-01-20T20:11:15.271Z,0.70
2024-01-20T20:13:43.568Z,0.70
2024-01-20T20:16:11.673Z,0.70
2024-01-20T20:18:39.888Z,0.70
2024-01-20T20:21:14.612Z,0.70
2024-01-20T20:23:44.144Z,0.70
2024-01-20T20:26:12.358Z,0.70
2024-01-20T20:28:40.482Z,0.60
2024-01-20T20:31:10.518Z,0.50
2024-01-20T20:33:39.400Z,0.50
2024-01-20T20:36:07.827Z,0.50
2024-01-20T20:38:35.931Z,0.50
2024-01-20T20:41:05.616Z,0.50
2024-01-20T20:43:35.229Z,0.50
2024-01-20T20:46:03.413Z,0.40
2024-01-20T20:48:32.828Z,0.40
2024-01-20T20:51:00.961Z,0.30
2024-01-20T20:53:29.074Z,0.30
2024-01-20T20:55:57.224Z,0.30
2024-01-20T20:58:26.672Z,0.30
2024-01-20T21:00:55.030Z,0.30
2024-01-20T21:03:23.572Z,0.20
2024-01-20T21:05:51.812Z,0.20
2024-01-20T21:08:20.446Z,0.10
2024-01-20T21:10:48.553Z,0.10
2024-01-20T21:13:16.654Z,0.10
2024-01-20T21:15:46.301Z,0.00
2024-01-20T21:18:15.426Z,0.00
2024-01-20T21:20:43.710Z,-0.10
2024-01-20T21:23:12.655Z,-0.10
2024-01-20T21:25:40.752Z,-0.20
2024-01-20T21:28:10.390Z,-0.20
2024-01-20T21:30:38.490Z,-0.30
2024-01-20T21:33:08.243Z,-0.30
2024-01-20T21:35:36.356Z,-0.40
2024-01-20T21:38:06.431Z,-0.50
2024-01-20T21:40:34.594Z,-0.50
2024-01-20T21:43:02.777Z,-0.50
2024-01-20T21:45:30.948Z,-0.50
2024-01-20T21:47:59.217Z,-0.60
2024-01-20T21:50:28.755Z,-0.60
2024-01-20T21:52:56.845Z,-0.70
2024-01-20T21:55:24.965Z,-0.70
2024-01-20T21:57:56.321Z,-0.80
2024-01-20T22:00:26.263Z,-0.90
2024-01-20T22:02:54.525Z,-0.90
2024-01-20T22:05:24.198Z,-1.00
2024-01-20T22:07:54.938Z,-1.00
2024-01-20T22:10:23.114Z,-1.10
2024-01-20T22:12:51.306Z,-1.10
2024-01-20T22:15:19.522Z,-1.20
2024-01-20T22:17:47.676Z,-1.30
2024-01-20T22:20:15.901Z,-1.30
2024-01-20T22:22:43.967Z,-1.40
2024-01-20T22:25:14.515Z,-1.40
2024-01-20T22:27:42.680Z,-1.40
2024-01-20T22:30:12.189Z,-1.50
2024-01-20T22:32:40.476Z,-1.50
2024-01-20T22:35:09.397Z,-1.60
2024-01-20T22:37:37.763Z,-1.60
2024-01-20T22:40:07.528Z,-1.60
2024-01-20T22:42:37.100Z,-1.70
2024-01-20T22:45:10.722Z,-1.70
2024-01-20T22:47:40.471Z,-1.70
2024-01-20T22:50:09.034Z,-1.80
2024-01-20T22:52:37.143Z,-1.80
2024-01-20T22:55:06.275Z,-1.80
2024-01-20T22:57:34.478Z,-1.90
2024-01-20T23:00:04.190Z,-1.90
2024-01-20T23:02:32.548Z,-1.80
2024-01-20T23:05:00.787Z,-1.90
2024-01-20T23:07:28.981Z,-1.90
2024-01-20T23:09:57.162Z,-1.90
2024-01-20T23:12:25.456Z,-1.90
2024-01-20T23:14:53.638Z,-1.90
2024-01-20T23:17:24.695Z,-1.90
2024-01-20T23:19:52.940Z,-2.00
2024-01-20T23:22:21.047Z,-1.90
2024-01-20T23:24:49.270Z,-2.00
2024-01-20T23:27:18.308Z,-2.00
2024-01-20T23:29:46.434Z,-2.00
2024-01-20T23:32:14.524Z,-2.00
2024-01-20T23:34:44.013Z,-2.10
2024-01-20T23:37:13.678Z,-2.10
2024-01-20T23:39:41.817Z,-2.10
2024-01-20T23:42:09.931Z,-2.10
2024-01-20T23:44:40.939Z,-2.20
2024-01-20T23:47:09.024Z,-2.20
2024-01-20T23:49:37.164Z,-2.30
2024-01-20T23:52:07.740Z,-2.30
2024-01-20T23:54:36.291Z,-2.30
2024-01-20T23:57:04.593Z,-2.40
2024-01-20T23:59:32.683Z,-2.40
